Time,TemperatureF,DewpointF,PressureIn,WindDirection,WindDirectionDegrees,WindSpeedMPH,WindSpeedGustMPH,Humidity,HourlyPrecipIn,Conditions,Clouds,dailyrainin,SoftwareType,DateUTC
2013-03-30 00:01:00,48.5,44.5,30.25,NW,315,0.0,1.5,85,0.00,,,0.00,NetBSD+Arduino,2013-03-30 07:01:00,
2013-03-30 00:06:00,48.7,44.5,30.25,NW,315,0.0,0.0,85,0.00,,,0.00,NetBSD+Arduino,2013-03-30 07:06:00,
2013-03-30 00:11:00,48.6,44.4,30.25,NW,315,0.0,0.0,85,0.00,,,0.00,NetBSD+Arduino,2013-03-30 07:11:00,
2013-03-30 00:16:00,48.4,44.4,30.25,West,270,0.0,0.0,86,0.00,,,0.00,NetBSD+Arduino,2013-03-30 07:16:00,
2013-03-30 00:21:00,48.1,44.3,30.25,NW,315,0.0,1.5,86,0.00,,,0.00,NetBSD+Arduino,2013-03-30 07:21:00,
2013-03-30 00:26:00,48.1,44.4,30.25,West,270,0.0,1.5,86,0.00,,,0.00,NetBSD+Arduino,2013-03-30 07:26:00,
2013-03-30 00:31:00,48.1,44.4,30.25,NE,45,1.5,3.0,86,0.00,,,0.00,NetBSD+Arduino,2013-03-30 07:31:00,
2013-03-30 00:36:00,48.1,44.5,30.25,NW,315,0.0,4.5,87,0.00,,,0.00,NetBSD+Arduino,2013-03-30 07:36:00,
2013-03-30 00:41:00,48.0,44.6,30.25,NE,45,0.0,3.0,87,0.00,,,0.00,NetBSD+Arduino,2013-03-30 07:41:00,
2013-03-30 00:46:00,47.8,44.3,30.25,NE,45,1.5,3.0,87,0.00,,,0.00,NetBSD+Arduino,2013-03-30 07:46:00,
2013-03-30 00:51:00,47.7,44.5,30.25,North,0,0.0,3.0,88,0.00,,,0.00,NetBSD+Arduino,2013-03-30 07:51:00,
2013-03-30 00:56:00,47.5,44.4,30.25,NE,45,1.5,3.0,88,0.00,,,0.00,NetBSD+Arduino,2013-03-30 07:56:00,
2013-03-30 01:01:00,47.5,44.5,30.25,North,0,0.0,3.0,89,0.00,,,0.00,NetBSD+Arduino,2013-03-30 08:01:00,
2013-03-30 01:06:00,47.4,44.5,30.25,North,0,3.0,3.0,89,0.00,,,0.00,NetBSD+Arduino,2013-03-30 08:06:00,
2013-03-30 01:11:00,47.3,44.6,30.26,NW,315,0.0,4.5,90,0.00,,,0.00,NetBSD+Arduino,2013-03-30 08:11:00,
2013-03-30 01:16:00,47.1,44.6,30.25,North,0,0.0,3.0,90,0.00,,,0.00,NetBSD+Arduino,2013-03-30 08:16:00,
2013-03-30 01:21:00,46.9,44.5,30.26,North,0,0.0,3.0,91,0.00,,,0.00,NetBSD+Arduino,2013-03-30 08:21:00,
2013-03-30 01:26:00,46.8,44.5,30.26,West,270,0.0,1.5,91,0.00,,,0.00,NetBSD+Arduino,2013-03-30 08:26:00,
2013-03-30 01:31:00,46.8,44.5,30.25,West,270,0.0,1.5,91,0.00,,,0.00,NetBSD+Arduino,2013-03-30 08:31:00,
2013-03-30 01:36:00,46.5,44.5,30.25,West,270,1.5,1.5,92,0.00,,,0.00,NetBSD+Arduino,2013-03-30 08:36:00,
2013-03-30 01:41:00,46.4,44.3,30.26,NW,315,0.0,1.5,92,0.00,,,0.00,NetBSD+Arduino,2013-03-30 08:41:00,
2013-03-30 01:46:00,46.4,44.3,30.25,North,0,0.0,1.5,92,0.00,,,0.00,NetBSD+Arduino,2013-03-30 08:46:00,
2013-03-30 01:51:00,46.5,44.5,30.26,North,0,0.0,3.0,92,0.00,,,0.00,NetBSD+Arduino,2013-03-30 08:51:00,
2013-03-30 01:56:00,46.5,44.5,30.26,North,0,0.0,1.5,92,0.00,,,0.00,NetBSD+Arduino,2013-03-30 08:56:00,
2013-03-30 02:01:00,46.4,44.3,30.25,NW,315,0.0,1.5,92,0.00,,,0.00,NetBSD+Arduino,2013-03-30 09:01:00,
2013-03-30 02:07:00,46.1,44.2,30.26,NW,315,0.0,0.0,93,0.00,,,0.00,NetBSD+Arduino,2013-03-30 09:07:00,
2013-03-30 02:12:00,45.8,44.2,30.26,NW,315,0.0,0.0,94,0.00,,,0.00,NetBSD+Arduino,2013-03-30 09:12:00,
2013-03-30 02:17:00,45.6,44.0,30.25,North,0,3.0,4.5,94,0.00,,,0.00,NetBSD+Arduino,2013-03-30 09:17:00,
2013-03-30 02:22:00,45.9,44.3,30.26,NW,315,0.0,4.5,94,0.00,,,0.00,NetBSD+Arduino,2013-03-30 09:22:00,
2013-03-30 02:27:00,46.0,44.2,30.26,SE,135,0.0,6.0,93,0.00,,,0.00,NetBSD+Arduino,2013-03-30 09:27:00,
2013-03-30 02:33:00,46.1,44.0,30.26,North,0,1.5,6.0,92,0.00,,,0.00,NetBSD+Arduino,2013-03-30 09:33:00,
2013-03-30 02:35:00,46.1,44.0,30.26,NW,315,1.5,3.0,92,0.00,,,0.00,NetBSD+Arduino,2013-03-30 09:35:00,
2013-03-30 02:41:00,45.9,43.8,30.26,West,270,0.0,1.5,92,0.00,,,0.00,NetBSD+Arduino,2013-03-30 09:41:00,
2013-03-30 02:46:00,45.9,43.8,30.26,NW,315,0.0,1.5,92,0.00,,,0.00,NetBSD+Arduino,2013-03-30 09:46:00,
2013-03-30 02:52:00,45.8,43.7,30.26,North,0,1.5,4.5,92,0.00,,,0.00,NetBSD+Arduino,2013-03-30 09:52:00,
2013-03-30 02:57:00,45.8,43.7,30.26,North,0,0.0,3.0,92,0.00,,,0.00,NetBSD+Arduino,2013-03-30 09:57:00,
2013-03-30 03:02:00,45.6,43.6,30.26,NE,45,1.5,3.0,92,0.00,,,0.00,NetBSD+Arduino,2013-03-30 10:02:00,
2013-03-30 03:07:00,45.5,43.7,30.26,NE,45,1.5,3.0,93,0.00,,,0.00,NetBSD+Arduino,2013-03-30 10:07:00,
2013-03-30 03:12:00,45.4,43.6,30.26,NW,315,0.0,3.0,93,0.00,,,0.00,NetBSD+Arduino,2013-03-30 10:12:00,
2013-03-30 03:17:00,45.2,43.5,30.26,NW,315,0.0,1.5,93,0.00,,,0.00,NetBSD+Arduino,2013-03-30 10:17:00,
2013-03-30 03:23:00,45.0,43.3,30.26,North,0,1.5,3.0,93,0.00,,,0.00,NetBSD+Arduino,2013-03-30 10:23:00,
2013-03-30 03:28:00,44.9,43.5,30.26,North,0,1.5,4.5,94,0.00,,,0.00,NetBSD+Arduino,2013-03-30 10:28:00,
2013-03-30 03:33:00,45.1,43.7,30.26,North,0,3.0,4.5,94,0.00,,,0.00,NetBSD+Arduino,2013-03-30 10:33:00,
2013-03-30 03:38:00,44.9,43.6,30.26,North,0,1.5,3.0,95,0.00,,,0.00,NetBSD+Arduino,2013-03-30 10:38:00,
2013-03-30 03:43:00,44.8,43.6,30.26,NE,45,1.5,3.0,95,0.00,,,0.00,NetBSD+Arduino,2013-03-30 10:43:00,
2013-03-30 03:48:00,44.7,43.5,30.26,NE,45,0.0,3.0,95,0.00,,,0.00,NetBSD+Arduino,2013-03-30 10:48:00,
2013-03-30 03:53:00,44.7,43.5,30.26,NE,45,0.0,3.0,95,0.00,,,0.00,NetBSD+Arduino,2013-03-30 10:53:00,
2013-03-30 03:58:00,44.6,43.6,30.25,North,0,0.0,3.0,96,0.00,,,0.00,NetBSD+Arduino,2013-03-30 10:58:00,
2013-03-30 04:03:00,44.5,43.5,30.25,NW,315,0.0,1.5,96,0.00,,,0.00,NetBSD+Arduino,2013-03-30 11:03:00,
2013-03-30 04:08:00,44.2,43.2,30.26,North,0,0.0,1.5,96,0.00,,,0.00,NetBSD+Arduino,2013-03-30 11:08:00,
2013-03-30 04:14:00,44.1,43.2,30.26,North,0,0.0,1.5,96,0.00,,,0.00,NetBSD+Arduino,2013-03-30 11:14:00,
2013-03-30 04:19:00,43.9,43.1,30.26,NW,315,0.0,1.5,96,0.00,,,0.00,NetBSD+Arduino,2013-03-30 11:19:00,
2013-03-30 04:24:00,44.2,43.4,30.25,NW,315,0.0,1.5,96,0.00,,,0.00,NetBSD+Arduino,2013-03-30 11:24:00,
2013-03-30 04:30:00,44.6,43.6,30.25,NW,315,1.5,3.0,96,0.00,,,0.00,NetBSD+Arduino,2013-03-30 11:30:00,
2013-03-30 04:35:00,44.5,43.5,30.26,NW,315,1.5,1.5,96,0.00,,,0.00,NetBSD+Arduino,2013-03-30 11:35:00,
2013-03-30 04:40:00,44.5,43.5,30.25,NW,315,0.0,3.0,96,0.00,,,0.00,NetBSD+Arduino,2013-03-30 11:40:00,
2013-03-30 04:45:00,44.3,43.3,30.25,NW,315,0.0,4.5,96,0.00,,,0.00,NetBSD+Arduino,2013-03-30 11:45:00,
2013-03-30 04:50:00,44.5,43.5,30.25,NW,315,1.5,3.0,96,0.00,,,0.00,NetBSD+Arduino,2013-03-30 11:50:00,
2013-03-30 04:55:00,44.3,43.3,30.25,NW,315,0.0,1.5,96,0.00,,,0.00,NetBSD+Arduino,2013-03-30 11:55:00,
2013-03-30 05:00:00,44.1,43.2,30.25,North,0,1.5,1.5,96,0.00,,,0.00,NetBSD+Arduino,2013-03-30 12:00:00,
2013-03-30 05:05:00,43.8,43.0,30.25,NW,315,1.5,3.0,96,0.00,,,0.00,NetBSD+Arduino,2013-03-30 12:05:00,
2013-03-30 05:10:00,43.8,43.1,30.25,NW,315,0.0,1.5,97,0.00,,,0.00,NetBSD+Arduino,2013-03-30 12:10:00,
2013-03-30 05:15:00,43.8,43.1,30.25,NW,315,1.5,3.0,97,0.00,,,0.00,NetBSD+Arduino,2013-03-30 12:15:00,
2013-03-30 05:21:00,43.6,43.0,30.25,NW,315,0.0,1.5,97,0.00,,,0.00,NetBSD+Arduino,2013-03-30 12:21:00,
2013-03-30 05:26:00,43.3,42.8,30.25,NW,315,0.0,3.0,98,0.00,,,0.00,NetBSD+Arduino,2013-03-30 12:26:00,
2013-03-30 05:31:00,42.9,42.4,30.25,West,270,0.0,1.5,97,0.00,,,0.00,NetBSD+Arduino,2013-03-30 12:31:00,
2013-03-30 05:36:00,42.8,42.3,30.25,NW,315,1.5,1.5,98,0.00,,,0.00,NetBSD+Arduino,2013-03-30 12:36:00,
2013-03-30 05:41:00,42.8,42.3,30.25,NW,315,0.0,1.5,98,0.00,,,0.00,NetBSD+Arduino,2013-03-30 12:41:00,
2013-03-30 05:46:00,42.8,42.2,30.25,NW,315,0.0,1.5,97,0.00,,,0.00,NetBSD+Arduino,2013-03-30 12:46:00,
2013-03-30 05:51:00,42.5,41.9,30.25,NW,315,0.0,3.0,97,0.00,,,0.00,NetBSD+Arduino,2013-03-30 12:51:00,
2013-03-30 05:56:00,42.4,42.0,30.25,NW,315,0.0,1.5,98,0.00,,,0.00,NetBSD+Arduino,2013-03-30 12:56:00,
2013-03-30 06:01:00,42.3,41.9,30.25,West,270,0.0,1.5,98,0.00,,,0.00,NetBSD+Arduino,2013-03-30 13:01:00,
2013-03-30 06:06:00,42.3,42.1,30.25,North,0,1.5,3.0,99,0.00,,,0.00,NetBSD+Arduino,2013-03-30 13:06:00,
2013-03-30 06:11:00,42.5,42.3,30.25,NW,315,1.5,3.0,99,0.00,,,0.00,NetBSD+Arduino,2013-03-30 13:11:00,
2013-03-30 06:16:00,42.6,42.4,30.25,NW,315,1.5,6.0,99,0.00,,,0.00,NetBSD+Arduino,2013-03-30 13:16:00,
2013-03-30 06:21:00,42.5,42.3,30.25,North,0,3.0,4.5,99,0.00,,,0.00,NetBSD+Arduino,2013-03-30 13:21:00,
2013-03-30 06:26:00,42.5,42.2,30.25,NW,315,1.5,3.0,99,0.00,,,0.00,NetBSD+Arduino,2013-03-30 13:26:00,
2013-03-30 06:31:00,42.3,42.1,30.25,NW,315,1.5,3.0,99,0.00,,,0.00,NetBSD+Arduino,2013-03-30 13:31:00,
2013-03-30 06:36:00,42.1,41.9,30.25,SW,225,0.0,1.5,99,0.00,,,0.00,NetBSD+Arduino,2013-03-30 13:36:00,
2013-03-30 06:41:00,42.0,41.7,30.25,NW,315,0.0,1.5,99,0.00,,,0.00,NetBSD+Arduino,2013-03-30 13:41:00,
2013-03-30 06:46:00,42.0,41.9,30.25,North,0,3.0,3.0,99,0.00,,,0.00,NetBSD+Arduino,2013-03-30 13:46:00,
2013-03-30 06:51:00,42.0,42.0,30.25,NW,315,1.5,4.5,99,0.00,,,0.00,NetBSD+Arduino,2013-03-30 13:51:00,
2013-03-30 06:56:00,42.3,42.0,30.25,North,0,0.0,4.5,99,0.00,,,0.00,NetBSD+Arduino,2013-03-30 13:56:00,
2013-03-30 07:01:00,42.2,41.9,30.25,NW,315,0.0,4.5,99,0.00,,,0.00,NetBSD+Arduino,2013-03-30 14:01:00,
2013-03-30 07:06:00,42.2,41.9,30.25,North,0,0.0,1.5,99,0.00,,,0.00,NetBSD+Arduino,2013-03-30 14:06:00,
2013-03-30 07:11:00,42.3,42.1,30.25,NW,315,0.0,0.0,99,0.00,,,0.00,NetBSD+Arduino,2013-03-30 14:11:00,
2013-03-30 07:16:00,42.1,42.1,30.25,West,270,0.0,1.5,99,0.00,,,0.00,NetBSD+Arduino,2013-03-30 14:16:00,
2013-03-30 07:21:00,42.0,42.0,30.25,NW,315,0.0,1.5,99,0.00,,,0.00,NetBSD+Arduino,2013-03-30 14:21:00,
2013-03-30 07:26:00,42.0,42.0,30.26,NW,315,0.0,1.5,99,0.00,,,0.00,NetBSD+Arduino,2013-03-30 14:26:00,
2013-03-30 07:31:00,42.2,42.1,30.25,NW,315,0.0,1.5,99,0.00,,,0.00,NetBSD+Arduino,2013-03-30 14:31:00,
2013-03-30 07:36:00,42.4,42.4,30.26,West,270,0.0,3.0,99,0.00,,,0.00,NetBSD+Arduino,2013-03-30 14:36:00,
2013-03-30 07:41:00,42.5,42.3,30.26,NW,315,0.0,0.0,99,0.00,,,0.00,NetBSD+Arduino,2013-03-30 14:41:00,
2013-03-30 07:46:00,42.9,42.5,30.26,North,0,0.0,3.0,98,0.00,,,0.00,NetBSD+Arduino,2013-03-30 14:46:00,
2013-03-30 07:51:00,43.3,42.9,30.26,NE,45,3.0,3.0,98,0.00,,,0.00,NetBSD+Arduino,2013-03-30 14:51:00,
2013-03-30 07:56:00,43.8,43.0,30.26,North,0,0.0,4.5,96,0.00,,,0.00,NetBSD+Arduino,2013-03-30 14:56:00,
2013-03-30 08:01:00,44.1,43.1,30.26,NE,45,3.0,4.5,96,0.00,,,0.00,NetBSD+Arduino,2013-03-30 15:01:00,
2013-03-30 08:06:00,44.4,43.0,30.26,North,0,0.0,4.5,94,0.00,,,0.00,NetBSD+Arduino,2013-03-30 15:06:00,
2013-03-30 08:12:00,44.9,42.8,30.25,NE,45,3.0,6.0,92,0.00,,,0.00,NetBSD+Arduino,2013-03-30 15:12:00,
2013-03-30 08:17:00,45.4,42.9,30.25,North,0,4.5,7.5,90,0.00,,,0.00,NetBSD+Arduino,2013-03-30 15:17:00,
2013-03-30 08:23:00,46.0,43.0,30.25,NE,45,3.0,6.0,89,0.00,,,0.00,NetBSD+Arduino,2013-03-30 15:23:00,
2013-03-30 08:28:00,46.4,43.1,30.25,NE,45,4.5,6.0,88,0.00,,,0.00,NetBSD+Arduino,2013-03-30 15:28:00,
2013-03-30 08:33:00,46.9,42.9,30.25,East,90,3.0,9.0,85,0.00,,,0.00,NetBSD+Arduino,2013-03-30 15:33:00,
2013-03-30 08:38:00,48.0,43.8,30.25,West,270,1.5,9.0,85,0.00,,,0.00,NetBSD+Arduino,2013-03-30 15:38:00,
2013-03-30 08:43:00,49.2,44.0,30.25,NE,45,3.0,7.5,82,0.00,,,0.00,NetBSD+Arduino,2013-03-30 15:43:00,
2013-03-30 08:48:00,49.8,43.9,30.25,North,0,1.5,7.5,79,0.00,,,0.00,NetBSD+Arduino,2013-03-30 15:48:00,
2013-03-30 08:53:00,51.3,44.3,30.25,North,0,0.0,4.5,77,0.00,,,0.00,NetBSD+Arduino,2013-03-30 15:53:00,
2013-03-30 08:58:00,53.0,45.0,30.25,NE,45,3.0,3.0,74,0.00,,,0.00,NetBSD+Arduino,2013-03-30 15:58:00,
2013-03-30 09:03:00,53.5,45.2,30.25,NW,315,1.5,4.5,73,0.00,,,0.00,NetBSD+Arduino,2013-03-30 16:03:00,
2013-03-30 09:08:00,54.9,45.5,30.25,East,90,3.0,6.0,70,0.00,,,0.00,NetBSD+Arduino,2013-03-30 16:08:00,
2013-03-30 09:13:00,55.6,45.6,30.25,West,270,0.0,4.5,68,0.00,,,0.00,NetBSD+Arduino,2013-03-30 16:13:00,
2013-03-30 09:18:00,56.6,45.8,30.25,SE,135,0.0,3.0,67,0.00,,,0.00,NetBSD+Arduino,2013-03-30 16:18:00,
2013-03-30 09:23:00,57.1,46.3,30.25,SE,135,3.0,6.0,67,0.00,,,0.00,NetBSD+Arduino,2013-03-30 16:23:00,
2013-03-30 09:28:00,55.9,45.1,30.25,North,0,4.5,9.0,67,0.00,,,0.00,NetBSD+Arduino,2013-03-30 16:28:00,
2013-03-30 09:34:00,56.2,46.1,30.25,NE,45,1.5,6.0,69,0.00,,,0.00,NetBSD+Arduino,2013-03-30 16:34:00,
2013-03-30 09:39:00,56.9,46.1,30.25,East,90,4.5,9.0,67,0.00,,,0.00,NetBSD+Arduino,2013-03-30 16:39:00,
2013-03-30 09:44:00,57.3,46.0,30.25,NE,45,1.5,6.0,65,0.00,,,0.00,NetBSD+Arduino,2013-03-30 16:44:00,
2013-03-30 09:49:00,57.6,45.1,30.25,NE,45,4.5,6.0,63,0.00,,,0.00,NetBSD+Arduino,2013-03-30 16:49:00,
2013-03-30 09:54:00,57.6,45.0,30.25,East,90,6.0,9.0,62,0.00,,,0.00,NetBSD+Arduino,2013-03-30 16:54:00,
2013-03-30 09:59:00,57.5,46.0,30.25,South,180,1.5,9.0,65,0.00,,,0.00,NetBSD+Arduino,2013-03-30 16:59:00,
2013-03-30 10:05:00,58.3,46.0,30.25,NE,45,1.5,7.5,63,0.00,,,0.00,NetBSD+Arduino,2013-03-30 17:05:00,
2013-03-30 10:10:00,58.3,45.7,30.25,North,0,1.5,9.0,62,0.00,,,0.00,NetBSD+Arduino,2013-03-30 17:10:00,
2013-03-30 10:15:00,57.9,45.4,30.24,North,0,3.0,10.4,63,0.00,,,0.00,NetBSD+Arduino,2013-03-30 17:15:00,
2013-03-30 10:21:00,58.3,45.8,30.24,NE,45,3.0,10.4,63,0.00,,,0.00,NetBSD+Arduino,2013-03-30 17:21:00,
2013-03-30 10:26:00,58.5,46.0,30.24,NE,45,6.0,10.4,63,0.00,,,0.00,NetBSD+Arduino,2013-03-30 17:26:00,
2013-03-30 10:31:00,58.3,45.8,30.23,NE,45,3.0,10.4,63,0.00,,,0.00,NetBSD+Arduino,2013-03-30 17:31:00,
2013-03-30 10:36:00,58.6,45.7,30.23,NE,45,6.0,10.4,62,0.00,,,0.00,NetBSD+Arduino,2013-03-30 17:36:00,
2013-03-30 10:41:00,59.8,46.7,30.23,North,0,3.0,9.0,61,0.00,,,0.00,NetBSD+Arduino,2013-03-30 17:41:00,
2013-03-30 10:46:00,60.5,47.2,30.23,NE,45,3.0,9.0,61,0.00,,,0.00,NetBSD+Arduino,2013-03-30 17:46:00,
2013-03-30 10:51:00,60.7,46.8,30.23,NE,45,6.0,7.5,60,0.00,,,0.00,NetBSD+Arduino,2013-03-30 17:51:00,
2013-03-30 10:56:00,60.5,46.2,30.23,East,90,4.5,11.9,59,0.00,,,0.00,NetBSD+Arduino,2013-03-30 17:56:00,
2013-03-30 11:01:00,60.2,45.8,30.23,North,0,7.5,9.0,59,0.00,,,0.00,NetBSD+Arduino,2013-03-30 18:01:00,
2013-03-30 11:06:00,59.8,46.0,30.23,NW,315,0.0,11.9,60,0.00,,,0.00,NetBSD+Arduino,2013-03-30 18:06:00,
2013-03-30 11:11:00,60.6,46.9,30.23,East,90,1.5,7.5,60,0.00,,,0.00,NetBSD+Arduino,2013-03-30 18:11:00,
2013-03-30 11:16:00,61.1,47.0,30.23,North,0,3.0,11.9,59,0.00,,,0.00,NetBSD+Arduino,2013-03-30 18:16:00,
2013-03-30 11:21:00,60.8,47.0,30.23,NE,45,4.5,11.9,60,0.00,,,0.00,NetBSD+Arduino,2013-03-30 18:21:00,
2013-03-30 11:26:00,62.1,47.1,30.23,West,270,3.0,9.0,57,0.00,,,0.00,NetBSD+Arduino,2013-03-30 18:26:00,
2013-03-30 11:31:00,63.1,47.3,30.23,West,270,3.0,9.0,56,0.00,,,0.00,NetBSD+Arduino,2013-03-30 18:31:00,
2013-03-30 11:36:00,63.6,48.0,30.23,West,270,1.5,7.5,56,0.00,,,0.00,NetBSD+Arduino,2013-03-30 18:36:00,
2013-03-30 11:41:00,63.6,48.0,30.23,North,0,1.5,7.5,55,0.00,,,0.00,NetBSD+Arduino,2013-03-30 18:41:00,
2013-03-30 11:47:00,63.6,48.0,30.23,NE,45,0.0,6.0,55,0.00,,,0.00,NetBSD+Arduino,2013-03-30 18:47:00,
2013-03-30 11:52:00,63.6,48.0,30.23,NW,315,3.0,7.5,55,0.00,,,0.00,NetBSD+Arduino,2013-03-30 18:52:00,
2013-03-30 11:58:00,63.6,48.0,30.23,NE,45,4.5,9.0,55,0.00,,,0.00,NetBSD+Arduino,2013-03-30 18:58:00,
2013-03-30 12:03:00,63.6,48.0,30.23,West,270,3.0,9.0,55,0.00,,,0.00,NetBSD+Arduino,2013-03-30 19:03:00,
2013-03-30 12:08:00,63.6,47.9,30.23,East,90,4.5,10.4,55,0.00,,,0.00,NetBSD+Arduino,2013-03-30 19:08:00,
2013-03-30 12:13:00,64.7,47.2,30.22,NW,315,3.0,11.9,53,0.00,,,0.00,NetBSD+Arduino,2013-03-30 19:13:00,
2013-03-30 12:18:00,64.7,47.9,30.22,NE,45,3.0,6.0,53,0.00,,,0.00,NetBSD+Arduino,2013-03-30 19:18:00,
2013-03-30 12:23:00,64.7,47.9,30.22,NW,315,3.0,7.5,53,0.00,,,0.00,NetBSD+Arduino,2013-03-30 19:23:00,
2013-03-30 12:28:00,66.5,48.2,30.22,South,180,0.0,6.0,51,0.00,,,0.00,NetBSD+Arduino,2013-03-30 19:28:00,
2013-03-30 12:33:00,66.5,48.2,30.22,NW,315,1.5,10.4,51,0.00,,,0.00,NetBSD+Arduino,2013-03-30 19:33:00,
2013-03-30 12:38:00,66.4,47.8,30.22,North,0,3.0,11.9,51,0.00,,,0.00,NetBSD+Arduino,2013-03-30 19:38:00,
2013-03-30 12:43:00,66.4,47.8,30.22,West,270,0.0,6.0,51,0.00,,,0.00,NetBSD+Arduino,2013-03-30 19:43:00,
2013-03-30 12:48:00,67.6,47.8,30.21,West,270,3.0,7.5,51,0.00,,,0.00,NetBSD+Arduino,2013-03-30 19:48:00,
2013-03-30 12:53:00,67.6,47.8,30.21,SW,225,1.5,6.0,51,0.00,,,0.00,NetBSD+Arduino,2013-03-30 19:53:00,
2013-03-30 12:58:00,67.6,47.8,30.21,North,0,6.0,9.0,51,0.00,,,0.00,NetBSD+Arduino,2013-03-30 19:58:00,
2013-03-30 13:03:00,67.6,47.8,30.20,NW,315,3.0,9.0,51,0.00,,,0.00,NetBSD+Arduino,2013-03-30 20:03:00,
2013-03-30 13:08:00,67.6,47.8,30.20,NW,315,1.5,13.4,51,0.00,,,0.00,NetBSD+Arduino,2013-03-30 20:08:00,
2013-03-30 13:13:00,67.6,47.8,30.20,North,0,1.5,4.5,51,0.00,,,0.00,NetBSD+Arduino,2013-03-30 20:13:00,
2013-03-30 13:18:00,67.6,47.8,30.20,North,0,3.0,9.0,51,0.00,,,0.00,NetBSD+Arduino,2013-03-30 20:18:00,
2013-03-30 13:23:00,67.6,47.8,30.20,NW,315,4.5,7.5,51,0.00,,,0.00,NetBSD+Arduino,2013-03-30 20:23:00,
2013-03-30 13:28:00,67.6,47.8,30.20,NW,315,4.5,7.5,51,0.00,,,0.00,NetBSD+Arduino,2013-03-30 20:28:00,
2013-03-30 13:33:00,67.6,47.8,30.20,North,0,1.5,7.5,51,0.00,,,0.00,NetBSD+Arduino,2013-03-30 20:33:00,
2013-03-30 13:38:00,67.6,47.8,30.20,NW,315,4.5,9.0,51,0.00,,,0.00,NetBSD+Arduino,2013-03-30 20:38:00,
2013-03-30 13:44:00,67.6,47.8,30.19,West,270,1.5,7.5,51,0.00,,,0.00,NetBSD+Arduino,2013-03-30 20:44:00,
2013-03-30 13:49:00,67.6,47.8,30.19,North,0,4.5,9.0,51,0.00,,,0.00,NetBSD+Arduino,2013-03-30 20:49:00,
2013-03-30 13:54:00,67.6,47.8,30.19,West,270,3.0,10.4,51,0.00,,,0.00,NetBSD+Arduino,2013-03-30 20:54:00,
2013-03-30 13:59:00,67.6,47.8,30.19,NW,315,1.5,7.5,51,0.00,,,0.00,NetBSD+Arduino,2013-03-30 20:59:00,
2013-03-30 14:04:00,67.6,47.8,30.19,North,0,9.0,10.4,51,0.00,,,0.00,NetBSD+Arduino,2013-03-30 21:04:00,
2013-03-30 14:09:00,67.6,47.8,30.19,NW,315,6.0,10.4,51,0.00,,,0.00,NetBSD+Arduino,2013-03-30 21:09:00,
2013-03-30 14:14:00,67.6,47.8,30.18,NE,45,1.5,9.0,51,0.00,,,0.00,NetBSD+Arduino,2013-03-30 21:14:00,
2013-03-30 14:19:00,67.6,47.8,30.18,NW,315,1.5,7.5,51,0.00,,,0.00,NetBSD+Arduino,2013-03-30 21:19:00,
2013-03-30 14:24:00,67.6,47.8,30.17,NW,315,3.0,7.5,51,0.00,,,0.00,NetBSD+Arduino,2013-03-30 21:24:00,
2013-03-30 14:29:00,67.6,47.8,30.17,West,270,4.5,7.5,51,0.00,,,0.00,NetBSD+Arduino,2013-03-30 21:29:00,
2013-03-30 14:34:00,67.6,47.8,30.17,West,270,4.5,7.5,51,0.00,,,0.00,NetBSD+Arduino,2013-03-30 21:34:00,
2013-03-30 14:39:00,67.6,47.8,30.17,North,0,3.0,9.0,51,0.00,,,0.00,NetBSD+Arduino,2013-03-30 21:39:00,
2013-03-30 14:44:00,67.6,47.8,30.17,NW,315,0.0,9.0,51,0.00,,,0.00,NetBSD+Arduino,2013-03-30 21:44:00,
2013-03-30 14:49:00,69.1,47.8,30.17,NW,315,1.5,10.4,51,0.00,,,0.00,NetBSD+Arduino,2013-03-30 21:49:00,
2013-03-30 14:54:00,68.6,48.9,30.17,NW,315,3.0,7.5,49,0.00,,,0.00,NetBSD+Arduino,2013-03-30 21:54:00,
2013-03-30 14:59:00,68.7,49.0,30.16,SW,225,1.5,6.0,49,0.00,,,0.00,NetBSD+Arduino,2013-03-30 21:59:00,
2013-03-30 15:04:00,68.8,47.7,30.16,NW,315,1.5,9.0,46,0.00,,,0.00,NetBSD+Arduino,2013-03-30 22:04:00,
2013-03-30 15:09:00,68.6,47.8,30.16,NW,315,3.0,7.5,47,0.00,,,0.00,NetBSD+Arduino,2013-03-30 22:09:00,
2013-03-30 15:14:00,68.4,48.7,30.16,NE,45,3.0,7.5,49,0.00,,,0.00,NetBSD+Arduino,2013-03-30 22:14:00,
2013-03-30 15:19:00,68.0,48.1,30.16,North,0,4.5,9.0,48,0.00,,,0.00,NetBSD+Arduino,2013-03-30 22:19:00,
2013-03-30 15:24:00,68.0,48.0,30.15,NW,315,3.0,10.4,48,0.00,,,0.00,NetBSD+Arduino,2013-03-30 22:24:00,
2013-03-30 15:29:00,68.2,49.9,30.15,North,0,3.0,9.0,51,0.00,,,0.00,NetBSD+Arduino,2013-03-30 22:29:00,
2013-03-30 15:34:00,66.5,48.0,30.15,NE,45,7.5,9.0,51,0.00,,,0.00,NetBSD+Arduino,2013-03-30 22:34:00,
2013-03-30 15:39:00,65.8,47.5,30.15,NW,315,1.5,7.5,51,0.00,,,0.00,NetBSD+Arduino,2013-03-30 22:39:00,
2013-03-30 15:44:00,65.5,46.8,30.15,NW,315,0.0,10.4,50,0.00,,,0.00,NetBSD+Arduino,2013-03-30 22:44:00,
2013-03-30 15:49:00,64.7,46.5,30.15,North,0,1.5,10.4,51,0.00,,,0.00,NetBSD+Arduino,2013-03-30 22:49:00,
2013-03-30 15:54:00,65.2,47.7,30.15,North,0,3.0,7.5,53,0.00,,,0.00,NetBSD+Arduino,2013-03-30 22:54:00,
2013-03-30 15:59:00,64.9,46.7,30.14,West,270,3.0,9.0,51,0.00,,,0.00,NetBSD+Arduino,2013-03-30 22:59:00,
2013-03-30 16:04:00,64.9,47.2,30.14,NW,315,4.5,4.5,52,0.00,,,0.00,NetBSD+Arduino,2013-03-30 23:04:00,
2013-03-30 16:09:00,64.8,47.1,30.13,North,0,4.5,7.5,52,0.00,,,0.00,NetBSD+Arduino,2013-03-30 23:09:00,
2013-03-30 16:14:00,64.7,48.2,30.13,North,0,1.5,6.0,55,0.00,,,0.00,NetBSD+Arduino,2013-03-30 23:14:00,
2013-03-30 16:19:00,64.6,46.9,30.13,East,90,3.0,7.5,52,0.00,,,0.00,NetBSD+Arduino,2013-03-30 23:19:00,
2013-03-30 16:24:00,64.4,45.6,30.13,NW,315,3.0,10.4,50,0.00,,,0.00,NetBSD+Arduino,2013-03-30 23:24:00,
2013-03-30 16:29:00,64.1,46.4,30.13,West,270,4.5,7.5,52,0.00,,,0.00,NetBSD+Arduino,2013-03-30 23:29:00,
2013-03-30 16:34:00,64.0,45.8,30.13,West,270,0.0,7.5,51,0.00,,,0.00,NetBSD+Arduino,2013-03-30 23:34:00,
2013-03-30 16:39:00,63.5,45.3,30.13,North,0,1.5,9.0,51,0.00,,,0.00,NetBSD+Arduino,2013-03-30 23:39:00,
2013-03-30 16:44:00,63.3,45.4,30.12,North,0,3.0,10.4,52,0.00,,,0.00,NetBSD+Arduino,2013-03-30 23:44:00,
2013-03-30 16:50:00,63.3,46.1,30.12,North,0,3.0,11.9,53,0.00,,,0.00,NetBSD+Arduino,2013-03-30 23:50:00,
2013-03-30 16:55:00,63.1,45.6,30.12,North,0,1.5,7.5,52,0.00,,,0.00,NetBSD+Arduino,2013-03-30 23:55:00,
2013-03-30 17:00:00,63.2,46.5,30.12,NW,315,1.5,4.5,54,0.00,,,0.00,NetBSD+Arduino,2013-03-31 00:00:00,
2013-03-30 17:06:00,62.8,45.9,30.12,NW,315,3.0,9.0,53,0.00,,,0.00,NetBSD+Arduino,2013-03-31 00:06:00,
2013-03-30 17:11:00,62.6,46.4,30.12,North,0,6.0,7.5,55,0.00,,,0.00,NetBSD+Arduino,2013-03-31 00:11:00,
2013-03-30 17:16:00,62.3,46.2,30.12,NE,45,0.0,6.0,55,0.00,,,0.00,NetBSD+Arduino,2013-03-31 00:16:00,
2013-03-30 17:22:00,62.1,46.3,30.11,NW,315,3.0,4.5,56,0.00,,,0.00,NetBSD+Arduino,2013-03-31 00:22:00,
2013-03-30 17:27:00,61.8,46.8,30.11,NW,315,6.0,7.5,57,0.00,,,0.00,NetBSD+Arduino,2013-03-31 00:27:00,
2013-03-30 17:32:00,61.8,47.0,30.11,West,270,0.0,7.5,58,0.00,,,0.00,NetBSD+Arduino,2013-03-31 00:32:00,
2013-03-30 17:38:00,61.3,46.5,30.11,NW,315,3.0,9.0,58,0.00,,,0.00,NetBSD+Arduino,2013-03-31 00:38:00,
2013-03-30 17:43:00,61.1,46.8,30.10,North,0,3.0,7.5,59,0.00,,,0.00,NetBSD+Arduino,2013-03-31 00:43:00,
2013-03-30 17:49:00,60.8,47.3,30.10,SW,225,0.0,9.0,61,0.00,,,0.00,NetBSD+Arduino,2013-03-31 00:49:00,
2013-03-30 17:54:00,60.6,47.1,30.10,NW,315,1.5,6.0,61,0.00,,,0.00,NetBSD+Arduino,2013-03-31 00:54:00,
2013-03-30 17:59:00,60.5,47.6,30.10,North,0,3.0,6.0,62,0.00,,,0.00,NetBSD+Arduino,2013-03-31 00:59:00,
2013-03-30 18:04:00,60.3,47.6,30.10,NW,315,0.0,6.0,62,0.00,,,0.00,NetBSD+Arduino,2013-03-31 01:04:00,
2013-03-30 18:09:00,59.9,47.6,30.10,NW,315,4.5,6.0,63,0.00,,,0.00,NetBSD+Arduino,2013-03-31 01:09:00,
2013-03-30 18:14:00,59.5,47.7,30.10,NW,315,1.5,4.5,64,0.00,,,0.00,NetBSD+Arduino,2013-03-31 01:14:00,
2013-03-30 18:20:00,59.4,48.1,30.10,West,270,3.0,9.0,66,0.00,,,0.00,NetBSD+Arduino,2013-03-31 01:20:00,
2013-03-30 18:25:00,59.2,47.9,30.10,North,0,1.5,4.5,66,0.00,,,0.00,NetBSD+Arduino,2013-03-31 01:25:00,
2013-03-30 18:30:00,59.1,47.8,30.09,North,0,6.0,7.5,66,0.00,,,0.00,NetBSD+Arduino,2013-03-31 01:30:00,
2013-03-30 18:35:00,58.8,47.4,30.09,North,0,0.0,6.0,66,0.00,,,0.00,NetBSD+Arduino,2013-03-31 01:35:00,
2013-03-30 18:41:00,58.4,47.8,30.09,NW,315,3.0,4.5,67,0.00,,,0.00,NetBSD+Arduino,2013-03-31 01:41:00,
2013-03-30 18:46:00,58.2,47.5,30.09,NE,45,3.0,7.5,67,0.00,,,0.00,NetBSD+Arduino,2013-03-31 01:46:00,
2013-03-30 18:51:00,58.0,47.8,30.09,West,270,3.0,6.0,68,0.00,,,0.00,NetBSD+Arduino,2013-03-31 01:51:00,
2013-03-30 18:56:00,57.7,47.7,30.09,North,0,4.5,9.0,69,0.00,,,0.00,NetBSD+Arduino,2013-03-31 01:56:00,
2013-03-30 19:01:00,57.6,47.8,30.09,NW,315,4.5,6.0,69,0.00,,,0.00,NetBSD+Arduino,2013-03-31 02:01:00,
2013-03-30 19:06:00,57.4,47.5,30.08,West,270,1.5,6.0,69,0.00,,,0.00,NetBSD+Arduino,2013-03-31 02:06:00,
2013-03-30 19:11:00,57.2,47.6,30.08,West,270,3.0,9.0,70,0.00,,,0.00,NetBSD+Arduino,2013-03-31 02:11:00,
2013-03-30 19:16:00,57.0,47.5,30.07,North,0,1.5,7.5,70,0.00,,,0.00,NetBSD+Arduino,2013-03-31 02:16:00,
2013-03-30 19:22:00,56.7,47.6,30.08,NW,315,1.5,4.5,71,0.00,,,0.00,NetBSD+Arduino,2013-03-31 02:22:00,
2013-03-30 19:27:00,56.4,47.5,30.08,NW,315,0.0,3.0,71,0.00,,,0.00,NetBSD+Arduino,2013-03-31 02:27:00,
2013-03-30 19:32:00,56.2,47.3,30.08,North,0,4.5,4.5,72,0.00,,,0.00,NetBSD+Arduino,2013-03-31 02:32:00,
2013-03-30 19:37:00,55.9,47.5,30.08,North,0,3.0,4.5,73,0.00,,,0.00,NetBSD+Arduino,2013-03-31 02:37:00,
2013-03-30 19:42:00,55.8,47.5,30.08,West,270,1.5,6.0,73,0.00,,,0.00,NetBSD+Arduino,2013-03-31 02:42:00,
2013-03-30 19:48:00,55.4,47.4,30.07,NW,315,1.5,4.5,74,0.00,,,0.00,NetBSD+Arduino,2013-03-31 02:48:00,
2013-03-30 19:53:00,55.2,47.4,30.08,West,270,0.0,4.5,74,0.00,,,0.00,NetBSD+Arduino,2013-03-31 02:53:00,
2013-03-30 19:58:00,54.9,47.2,30.07,NW,315,1.5,4.5,75,0.00,,,0.00,NetBSD+Arduino,2013-03-31 02:58:00,
2013-03-30 20:03:00,54.9,47.2,30.07,NW,315,1.5,6.0,75,0.00,,,0.00,NetBSD+Arduino,2013-03-31 03:03:00,
2013-03-30 20:08:00,54.8,47.3,30.08,NW,315,1.5,4.5,75,0.00,,,0.00,NetBSD+Arduino,2013-03-31 03:08:00,
2013-03-30 20:13:00,54.6,47.0,30.07,NW,315,1.5,4.5,75,0.00,,,0.00,NetBSD+Arduino,2013-03-31 03:13:00,
2013-03-30 20:18:00,54.4,47.1,30.08,North,0,1.5,4.5,76,0.00,,,0.00,NetBSD+Arduino,2013-03-31 03:18:00,
2013-03-30 20:23:00,54.2,47.1,30.08,NW,315,0.0,4.5,76,0.00,,,0.00,NetBSD+Arduino,2013-03-31 03:23:00,
2013-03-30 20:28:00,54.0,47.1,30.07,NW,315,1.5,4.5,77,0.00,,,0.00,NetBSD+Arduino,2013-03-31 03:28:00,
2013-03-30 20:33:00,53.8,46.9,30.07,North,0,1.5,3.0,77,0.00,,,0.00,NetBSD+Arduino,2013-03-31 03:33:00,
2013-03-30 20:38:00,53.8,46.9,30.08,NW,315,0.0,4.5,77,0.00,,,0.00,NetBSD+Arduino,2013-03-31 03:38:00,
2013-03-30 20:44:00,53.7,46.8,30.08,West,270,1.5,6.0,77,0.00,,,0.00,NetBSD+Arduino,2013-03-31 03:44:00,
2013-03-30 20:49:00,53.7,46.8,30.08,East,90,0.0,4.5,77,0.00,,,0.00,NetBSD+Arduino,2013-03-31 03:49:00,
2013-03-30 20:55:00,53.6,46.3,30.08,North,0,1.5,4.5,76,0.00,,,0.00,NetBSD+Arduino,2013-03-31 03:55:00,
2013-03-30 21:01:00,53.6,46.3,30.07,West,270,1.5,3.0,76,0.00,,,0.00,NetBSD+Arduino,2013-03-31 04:01:00,
2013-03-30 21:02:00,53.5,46.3,30.07,NW,315,0.0,3.0,76,0.00,,,0.00,NetBSD+Arduino,2013-03-31 04:02:00,
2013-03-30 21:07:00,53.2,46.3,30.08,NW,315,0.0,3.0,77,0.00,,,0.00,NetBSD+Arduino,2013-03-31 04:07:00,
2013-03-30 21:09:00,53.1,46.0,30.08,North,0,0.0,3.0,76,0.00,,,0.00,NetBSD+Arduino,2013-03-31 04:09:00,
2013-03-30 21:15:00,53.1,46.0,30.08,West,270,0.0,3.0,76,0.00,,,0.00,NetBSD+Arduino,2013-03-31 04:15:00,
2013-03-30 21:20:00,53.1,46.0,30.08,NW,315,0.0,3.0,76,0.00,,,0.00,NetBSD+Arduino,2013-03-31 04:20:00,
2013-03-30 21:25:00,53.0,45.8,30.07,West,270,0.0,3.0,76,0.00,,,0.00,NetBSD+Arduino,2013-03-31 04:25:00,
2013-03-30 21:30:00,52.8,45.5,30.08,North,0,1.5,4.5,76,0.00,,,0.00,NetBSD+Arduino,2013-03-31 04:30:00,
2013-03-30 21:35:00,52.6,45.5,30.08,North,0,1.5,4.5,76,0.00,,,0.00,NetBSD+Arduino,2013-03-31 04:35:00,
2013-03-30 21:40:00,52.4,45.5,30.08,North,0,4.5,4.5,77,0.00,,,0.00,NetBSD+Arduino,2013-03-31 04:40:00,
2013-03-30 21:45:00,52.2,45.4,30.08,North,0,3.0,6.0,77,0.00,,,0.00,NetBSD+Arduino,2013-03-31 04:45:00,
2013-03-30 21:50:00,52.1,45.3,30.08,NE,45,0.0,7.5,77,0.00,,,0.00,NetBSD+Arduino,2013-03-31 04:50:00,
2013-03-30 21:55:00,52.0,45.2,30.09,North,0,0.0,4.5,77,0.00,,,0.00,NetBSD+Arduino,2013-03-31 04:55:00,
2013-03-30 22:00:00,51.8,45.2,30.08,NE,45,0.0,7.5,78,0.00,,,0.00,NetBSD+Arduino,2013-03-31 05:00:00,
2013-03-30 22:05:00,51.7,45.0,30.08,NW,315,0.0,4.5,77,0.00,,,0.00,NetBSD+Arduino,2013-03-31 05:05:00,
2013-03-30 22:10:00,51.6,45.0,30.08,NE,45,1.5,4.5,77,0.00,,,0.00,NetBSD+Arduino,2013-03-31 05:10:00,
2013-03-30 22:15:00,51.5,44.8,30.08,North,0,1.5,4.5,77,0.00,,,0.00,NetBSD+Arduino,2013-03-31 05:15:00,
2013-03-30 22:20:00,51.3,44.8,30.07,NE,45,0.0,3.0,78,0.00,,,0.00,NetBSD+Arduino,2013-03-31 05:20:00,
2013-03-30 22:25:00,51.3,44.9,30.07,North,0,3.0,4.5,78,0.00,,,0.00,NetBSD+Arduino,2013-03-31 05:25:00,
2013-03-30 22:31:00,51.3,44.7,30.07,North,0,1.5,4.5,77,0.00,,,0.00,NetBSD+Arduino,2013-03-31 05:31:00,
2013-03-30 22:38:00,51.1,44.3,30.07,North,0,3.0,6.0,77,0.00,,,0.00,NetBSD+Arduino,2013-03-31 05:38:00,
2013-03-30 22:43:00,51.0,44.2,30.07,North,0,0.0,4.5,77,0.00,,,0.00,NetBSD+Arduino,2013-03-31 05:43:00,
2013-03-30 22:48:00,51.0,44.2,30.07,NE,45,3.0,4.5,77,0.00,,,0.00,NetBSD+Arduino,2013-03-31 05:48:00,
2013-03-30 22:53:00,50.8,44.2,30.07,NW,315,1.5,3.0,77,0.00,,,0.00,NetBSD+Arduino,2013-03-31 05:53:00,
2013-03-30 22:58:00,50.7,44.0,30.07,North,0,0.0,3.0,77,0.00,,,0.00,NetBSD+Arduino,2013-03-31 05:58:00,
2013-03-30 23:03:00,50.5,44.1,30.07,NW,315,0.0,3.0,78,0.00,,,0.00,NetBSD+Arduino,2013-03-31 06:03:00,
2013-03-30 23:09:00,50.4,44.0,30.07,NW,315,0.0,3.0,78,0.00,,,0.00,NetBSD+Arduino,2013-03-31 06:09:00,
2013-03-30 23:14:00,50.2,43.7,30.07,North,0,3.0,4.5,78,0.00,,,0.00,NetBSD+Arduino,2013-03-31 06:14:00,
2013-03-30 23:19:00,50.3,44.0,30.07,North,0,0.0,4.5,78,0.00,,,0.00,NetBSD+Arduino,2013-03-31 06:19:00,
2013-03-30 23:24:00,50.2,43.9,30.07,North,0,1.5,3.0,78,0.00,,,0.00,NetBSD+Arduino,2013-03-31 06:24:00,
2013-03-30 23:29:00,50.2,43.9,30.07,North,0,3.0,3.0,78,0.00,,,0.00,NetBSD+Arduino,2013-03-31 06:29:00,
2013-03-30 23:34:00,50.2,44.0,30.07,NW,315,0.0,3.0,79,0.00,,,0.00,NetBSD+Arduino,2013-03-31 06:34:00,
2013-03-30 23:39:00,50.1,44.0,30.07,North,0,1.5,3.0,79,0.00,,,0.00,NetBSD+Arduino,2013-03-31 06:39:00,
2013-03-30 23:44:00,49.8,43.7,30.07,North,0,0.0,3.0,79,0.00,,,0.00,NetBSD+Arduino,2013-03-31 06:44:00,
2013-03-30 23:49:00,49.8,43.9,30.07,NW,315,0.0,3.0,79,0.00,,,0.00,NetBSD+Arduino,2013-03-31 06:49:00,
2013-03-30 23:54:00,49.7,43.9,30.07,NW,315,0.0,0.0,80,0.00,,,0.00,NetBSD+Arduino,2013-03-31 06:54:00,